Time;durP1;ratioP1;P1;durP2;ratioP2;P2;SDS_P1;SDS_P2;PMS_P1;PMS_P2;Temp;Humidity;BMP_temperature;BMP_pressure;BME280_temperature;BME280_humidity;BME280_pressure;Samples;Min_cycle;Max_cycle;Signal;HPM_P1;HPM_P2
2023/01/16 01:20:08;;;;;;;12.90;8.50;;;;;;;2.65;79.44;100406.60;105966;1283;613374;-71
2023/01/16 01:22:40;;;;;;;14.60;8.40;;;;;;;3.32;76.82;100396.41;107284;1265;177350;-70
2023/01/16 01:25:07;;;;;;;15.60;8.30;;;;;;;3.32;76.26;100394.10;107430;1265;59614;-70
2023/01/16 01:27:34;;;;;;;12.10;7.70;;;;;;;3.32;75.86;100391.27;107366;1266;74373;-71
2023/01/16 01:30:01;;;;;;;16.50;8.90;;;;;;;3.36;75.54;100384.95;107394;1267;73166;-70
2023/01/16 01:32:28;;;;;;;16.00;8.90;;;;;;;3.37;75.29;100381.60;107372;1267;71594;-70
2023/01/16 01:34:55;;;;;;;15.40;8.80;;;;;;;3.38;75.01;100377.98;107338;1266;61198;-71
2023/01/16 01:37:22;;;;;;;16.60;9.30;;;;;;;3.37;74.66;100375.20;107337;1266;60937;-70
2023/01/16 01:39:50;;;;;;;13.90;8.50;;;;;;;3.37;74.39;100373.08;107335;1266;71053;-71
2023/01/16 01:45:22;;;;;;;16.20;8.80;;;;;;;3.33;73.88;100358.24;107340;1266;71287;-72
2023/01/16 01:48:11;;;;;;;14.50;8.50;;;;;;;3.30;73.48;100356.97;107336;1267;60089;-71
2023/01/16 01:51:13;;;;;;;15.70;8.90;;;;;;;3.30;73.34;100355.70;107397;1266;60129;-71
2023/01/16 01:53:58;;;;;;;16.10;8.90;;;;;;;3.31;73.09;100353.45;107289;1266;74840;-71
2023/01/16 01:56:26;;;;;;;16.80;9.20;;;;;;;3.32;72.96;100350.69;107416;1266;74919;-71
2023/01/16 01:58:58;;;;;;;14.60;8.10;;;;;;;3.33;72.76;100362.10;107302;1267;71905;-71
2023/01/16 02:01:25;;;;;;;15.50;8.50;;;;;;;3.35;72.46;100355.87;107367;1266;61062;-71
2023/01/16 02:03:57;;;;;;;14.10;8.20;;;;;;;3.35;72.28;100354.38;107364;1265;59633;-72
2023/01/16 02:06:34;;;;;;;14.30;8.10;;;;;;;3.35;72.19;100352.79;107414;1266;73491;-71
2023/01/16 02:09:01;;;;;;;14.90;8.50;;;;;;;3.38;72.04;100351.46;107330;1266;74443;-72
2023/01/16 02:12:01;;;;;;;14.90;8.80;;;;;;;3.41;71.83;100350.66;107329;1266;71865;-71
2023/01/16 02:14:30;;;;;;;15.50;8.30;;;;;;;3.44;71.77;100346.02;107354;1269;59908;-71
2023/01/16 02:20:15;;;;;;;14.20;8.00;;;;;;;3.43;71.37;100331.69;107244;1267;73130;-72
2023/01/16 02:23:07;;;;;;;15.40;8.80;;;;;;;3.42;71.23;100328.52;107291;1266;74393;-71
2023/01/16 02:25:45;;;;;;;15.60;8.30;;;;;;;3.41;71.02;100325.73;107298;1268;74022;-71
2023/01/16 02:28:31;;;;;;;12.40;7.60;;;;;;;3.40;70.98;100326.10;107289;1267;63177;-71
2023/01/16 02:31:07;;;;;;;15.20;8.30;;;;;;;3.42;70.96;100327.83;107313;1266;61098;-71
2023/01/16 02:34:03;;;;;;;12.20;6.70;;;;;;;3.25;71.43;100320.65;107271;1266;72790;-71
2023/01/16 02:36:39;;;;;;;13.60;7.30;;;;;;;3.43;70.99;100317.27;107378;1266;74674;-70
2023/01/16 02:39:17;;;;;;;13.40;8.00;;;;;;;3.46;70.88;100314.77;107311;1266;74601;-71
2023/01/16 02:42:10;;;;;;;15.60;8.30;;;;;;;3.48;70.74;100308.73;107733;1260;62843;-71
2023/01/16 02:44:43;;;;;;;11.90;7.00;;;;;;;3.51;70.57;100307.48;107664;1260;60828;-71
2023/01/16 02:47:20;;;;;;;12.30;7.30;;;;;;;3.51;70.51;100311.98;107943;1260;73796;-71
2023/01/16 02:49:53;;;;;;;14.00;7.70;;;;;;;3.51;70.43;100309.55;107911;1257;73684;-71
2023/01/16 02:52:49;;;;;;;12.20;6.70;;;;;;;3.52;70.40;100306.83;107861;1257;70944;-71
2023/01/16 02:55:40;;;;;;;12.30;7.40;;;;;;;3.53;70.34;100305.60;107894;1257;63356;-71
2023/01/16 02:58:07;;;;;;;12.00;6.80;;;;;;;3.57;70.27;100306.91;107928;1256;60319;-71
2023/01/16 03:00:34;;;;;;;12.80;7.60;;;;;;;3.57;70.31;100308.13;107838;1256;74115;-71
2023/01/16 03:03:02;;;;;;;11.70;6.10;;;;;;;3.24;71.20;100311.20;107690;1255;71596;-71
2023/01/16 03:05:35;;;;;;;12.20;7.20;;;;;;;3.15;71.43;100308.55;107926;1256;73254;-71
2023/01/16 03:08:19;;;;;;;12.00;7.30;;;;;;;3.13;71.55;100306.90;107964;1257;63539;-71
2023/01/16 03:10:46;;;;;;;13.80;7.10;;;;;;;3.12;71.59;100303.12;108048;1256;59532;-73
2023/01/16 03:13:36;;;;;;;11.30;6.60;;;;;;;3.14;71.78;100302.39;107976;1257;75196;-70
2023/01/16 03:16:12;;;;;;;11.20;6.50;;;;;;;3.15;71.64;100299.00;107871;1257;72626;-72
2023/01/16 03:19:03;;;;;;;10.10;5.90;;;;;;;3.14;71.70;100291.05;108044;1256;73625;-71
2023/01/16 03:21:38;;;;;;;9.60;6.00;;;;;;;3.14;71.73;100294.27;108069;1256;63257;-71
2023/01/16 03:24:40;;;;;;;11.90;6.30;;;;;;;3.15;71.71;100296.03;108060;1257;59986;-71
2023/01/16 03:27:13;;;;;;;11.10;6.40;;;;;;;3.18;71.80;100302.67;107957;1255;72791;-71
2023/01/16 03:29:55;;;;;;;11.60;6.80;;;;;;;3.21;71.83;100304.36;107961;1255;71375;-71
2023/01/16 03:32:32;;;;;;;10.80;6.30;;;;;;;3.24;71.64;100300.81;108085;1257;72419;-71
2023/01/16 03:35:21;;;;;;;10.70;6.10;;;;;;;3.25;71.83;100297.67;107927;1255;61215;-71
2023/01/16 03:37:50;;;;;;;11.70;6.60;;;;;;;3.27;71.58;100297.37;107950;1260;61090;-70
2023/01/16 03:40:22;;;;;;;10.20;5.90;;;;;;;3.30;71.70;100294.05;108021;1255;71903;-70
2023/01/16 03:42:52;;;;;;;;;;;;;;;3.32;71.66;100289.98;107895;1256;72895;-70
2023/01/16 03:45:44;;;;;;;10.60;5.90;;;;;;;3.33;71.42;100283.30;107942;1257;74800;-72
2023/01/16 03:48:13;;;;;;;9.50;5.90;;;;;;;3.36;71.55;100279.15;107921;1257;59443;-70
2023/01/16 03:50:42;;;;;;;9.50;5.30;;;;;;;3.66;70.81;100267.09;107933;1256;61123;-72
2023/01/16 03:53:11;;;;;;;9.70;5.60;;;;;;;3.91;69.66;100266.95;107960;1256;73853;-71
2023/01/16 03:55:43;;;;;;;10.10;5.70;;;;;;;3.93;69.36;100262.30;107951;1256;73048;-72
2023/01/16 03:58:19;;;;;;;9.50;5.80;;;;;;;3.88;69.26;100267.02;107822;1257;71102;-70
2023/01/16 07:02:17;;;;;;;7.50;4.70;;;;;;;3.37;83.01;100236.36;105836;1283;613923;-80
2023/01/16 07:04:46;;;;;;;6.60;4.50;;;;;;;4.24;79.25;100231.23;107322;1272;108510;-81
2023/01/16 07:53:33;;;;;;;12.00;8.60;;;;;;;4.13;81.40;100195.88;105901;1282;613677;-66
2023/01/16 07:56:01;;;;;;;12.20;8.30;;;;;;;4.93;77.66;100193.08;107297;1264;135701;-66
2023/01/16 07:58:28;;;;;;;11.40;7.30;;;;;;;5.04;76.82;100188.59;107376;1265;60522;-66
2023/01/16 08:00:56;;;;;;;10.80;6.80;;;;;;;5.21;75.93;100187.04;107423;1265;70938;-67
2023/01/16 08:03:23;;;;;;;11.20;7.00;;;;;;;5.29;75.47;100181.19;107387;1270;74190;-67
2023/01/16 08:05:55;;;;;;;10.10;6.80;;;;;;;5.35;74.90;100182.27;107352;1265;71728;-67
2023/01/16 08:08:25;;;;;;;10.40;6.60;;;;;;;5.41;74.57;100184.40;107380;1266;61749;-67
2023/01/16 08:10:56;;;;;;;10.20;6.20;;;;;;;5.49;74.32;100186.05;107441;1265;60366;-67
2023/01/16 08:13:23;;;;;;;10.20;6.50;;;;;;;5.53;73.94;100188.21;107370;1265;72335;-67
2023/01/16 08:15:50;;;;;;;9.20;6.00;;;;;;;5.56;73.59;100185.35;107370;1266;73322;-67
2023/01/16 08:18:18;;;;;;;10.80;6.60;;;;;;;5.59;73.26;100182.46;107360;1266;74657;-68
2023/01/16 08:20:46;;;;;;;10.20;6.20;;;;;;;5.64;72.97;100178.43;107424;1267;60959;-67
2023/01/16 08:23:13;;;;;;;8.70;6.10;;;;;;;5.65;72.46;100173.27;107389;1265;59433;-67
2023/01/16 08:25:40;;;;;;;9.30;6.00;;;;;;;5.59;72.20;100168.36;107442;1264;75126;-66
2023/01/16 08:28:07;;;;;;;8.90;5.60;;;;;;;5.53;72.12;100166.02;107388;1264;72672;-66
2023/01/16 08:30:34;;;;;;;10.50;6.40;;;;;;;5.50;72.00;100166.75;107831;1258;71995;-66
2023/01/16 08:33:01;;;;;;;10.10;7.00;;;;;;;5.53;71.78;100171.48;107820;1259;59671;-66
2023/01/16 08:35:28;;;;;;;11.60;7.80;;;;;;;5.53;71.53;100171.22;107851;1256;59417;-66
2023/01/16 08:37:55;;;;;;;11.10;7.50;;;;;;;5.55;71.36;100173.67;107863;1257;73283;-66
2023/01/16 08:40:22;;;;;;;10.70;7.10;;;;;;;5.54;71.22;100173.55;107900;1257;71371;-66
2023/01/16 10:11:04;;;;;;;12.50;9.20;;;;;;;4.79;79.00;100113.25;105974;1282;612974;-68
2023/01/16 10:13:42;;;;;;;12.20;8.90;;;;;;;5.69;75.19;100097.02;107360;1263;105003;-68
2023/01/16 10:16:26;;;;;;;14.20;9.60;;;;;;;5.76;74.70;100087.14;107499;1264;61806;-68
2023/01/16 10:18:55;;;;;;;12.80;9.30;;;;;;;5.84;74.34;100086.87;107387;1266;72863;-68
2023/01/16 10:21:31;;;;;;;14.20;9.20;;;;;;;5.90;73.97;100075.04;107408;1269;71208;-68
2023/01/16 10:24:13;;;;;;;14.20;9.30;;;;;;;5.97;73.69;100072.02;107378;1266;72089;-67
2023/01/16 10:26:57;;;;;;;17.90;10.80;;;;;;;6.06;73.46;100068.83;107396;1266;61496;-67
2023/01/16 10:29:35;;;;;;;17.00;11.40;;;;;;;6.11;73.01;100060.08;107392;1265;59805;-67
2023/01/16 10:32:08;;;;;;;16.10;10.40;;;;;;;6.15;72.64;100057.54;107734;1263;72905;-67
2023/01/16 10:34:46;;;;;;;17.80;11.10;;;;;;;6.18;72.30;100056.36;107797;1256;73050;-68
2023/01/16 10:37:13;;;;;;;15.40;10.40;;;;;;;6.21;72.03;100050.42;107823;1257;74674;-68
2023/01/16 10:39:40;;;;;;;16.50;10.60;;;;;;;6.25;71.74;100052.98;107648;1256;61374;-69
2023/01/16 10:50:35;;;;;;;17.60;11.30;;;;;;;6.32;70.68;100041.33;107824;1260;72369;-69
2023/01/16 10:53:04;;;;;;;20.30;11.00;;;;;;;6.34;70.47;100035.04;107803;1257;60023;-68
2023/01/16 10:55:32;;;;;;;15.30;10.40;;;;;;;6.27;70.44;100031.17;107904;1257;62474;-69
2023/01/16 10:58:04;;;;;;;17.80;10.70;;;;;;;6.26;70.32;100033.48;107849;1256;73074;-68
2023/01/16 11:00:32;;;;;;;;;;;;;;;6.25;70.08;100032.45;107719;1257;72481;-65
2023/01/16 11:03:01;;;;;;;16.50;10.60;;;;;;;6.21;69.93;100033.93;107757;1260;71151;-66
2023/01/16 11:05:33;;;;;;;16.80;11.00;;;;;;;6.20;69.98;100028.08;107831;1259;59570;-68
2023/01/16 11:08:10;;;;;;;17.70;11.30;;;;;;;6.21;69.79;100030.70;107845;1257;59023;-66
2023/01/16 11:10:39;;;;;;;16.80;11.30;;;;;;;6.21;69.75;100032.34;107726;1260;71358;-66
2023/01/16 11:18:58;;;;;;;19.20;11.00;;;;;;;6.31;69.08;100026.19;107781;1256;63146;-67
2023/01/16 11:21:30;;;;;;;19.50;11.40;;;;;;;6.32;68.96;100021.42;108055;1257;59512;-68
2023/01/16 11:24:03;;;;;;;16.60;11.10;;;;;;;6.33;68.94;100021.55;107999;1257;74119;-68
2023/01/16 11:26:30;;;;;;;17.00;11.10;;;;;;;6.37;68.92;100024.41;108089;1255;73887;-67
2023/01/16 11:28:57;;;;;;;17.50;11.20;;;;;;;6.40;68.89;100032.27;107960;1262;72022;-68
2023/01/16 11:31:26;;;;;;;15.10;10.10;;;;;;;6.42;68.73;100030.55;107728;1257;61200;-68
2023/01/16 11:33:59;;;;;;;16.10;10.80;;;;;;;6.44;68.63;100019.16;107732;1257;62366;-68
2023/01/16 11:36:27;;;;;;;15.90;9.90;;;;;;;6.45;68.52;100015.63;107983;1256;74031;-68
2023/01/16 11:38:54;;;;;;;17.30;10.20;;;;;;;6.45;68.37;100014.83;107795;1257;72933;-68
2023/01/16 11:41:39;;;;;;;18.70;11.80;;;;;;;6.45;68.33;100015.06;107766;1257;73302;-67
2023/01/16 11:47:02;;;;;;;17.40;11.50;;;;;;;6.42;68.20;100017.50;108046;1255;59624;-67
2023/01/16 11:49:40;;;;;;;18.00;12.00;;;;;;;6.44;68.09;100017.63;107988;1257;73804;-68
2023/01/16 11:52:26;;;;;;;17.70;11.50;;;;;;;6.44;67.99;100019.58;108026;1257;71953;-68
2023/01/16 11:54:58;;;;;;;17.70;11.90;;;;;;;6.46;67.91;100020.05;107982;1260;72721;-68
2023/01/16 11:57:37;;;;;;;17.10;12.10;;;;;;;6.48;67.82;100014.84;107995;1256;61581;-69
2023/01/16 12:00:26;;;;;;;18.90;12.80;;;;;;;6.50;67.71;100012.67;107986;1261;60528;-68
2023/01/16 18:17:42;;;;;;;20.60;14.20;;;;;;;5.88;86.62;99815.86;107540;1264;59602;-67
2023/01/16 18:20:11;;;;;;;22.40;13.10;;;;;;;5.95;86.11;99811.52;107558;1263;74223;-67
2023/01/16 18:22:38;;;;;;;19.70;13.30;;;;;;;6.01;85.59;99813.05;107786;1263;73766;-67
2023/01/16 18:25:06;;;;;;;20.30;13.90;;;;;;;6.08;85.17;99810.53;107729;1260;71815;-68
2023/01/16 18:27:33;;;;;;;20.50;14.60;;;;;;;6.18;84.61;99809.61;107802;1258;59865;-68
2023/01/16 18:30:00;;;;;;;19.60;13.70;;;;;;;6.24;84.01;99807.39;107742;1257;59430;-68
2023/01/16 18:32:28;;;;;;;21.10;14.20;;;;;;;6.28;83.71;99798.54;107813;1260;72586;-67
2023/01/16 18:34:57;;;;;;;25.30;14.80;;;;;;;6.33;83.26;99793.34;107745;1259;72785;-69
2023/01/16 18:37:37;;;;;;;;;;;;;;;6.38;82.98;99797.07;107744;1259;73251;-68
2023/01/16 19:02:45;;;;;;;19.90;12.80;;;;;;;6.56;80.28;99784.54;107709;1264;73812;-69
2023/01/16 19:05:13;;;;;;;20.60;12.10;;;;;;;6.59;80.09;99783.50;107712;1260;73467;-68
2023/01/16 19:07:46;;;;;;;20.30;12.80;;;;;;;6.60;79.88;99779.21;107736;1259;62277;-68
2023/01/16 19:10:20;;;;;;;19.60;11.80;;;;;;;6.62;79.59;99781.79;107693;1259;59787;-69
2023/01/16 19:12:47;;;;;;;19.80;12.40;;;;;;;6.63;79.39;99777.34;107664;1260;74571;-68
2023/01/16 19:15:14;;;;;;;20.60;12.20;;;;;;;6.64;79.17;99779.20;107625;1259;72113;-68
2023/01/16 19:17:41;;;;;;;17.10;12.00;;;;;;;6.67;79.02;99779.08;107634;1260;72397;-68
2023/01/16 19:20:15;;;;;;;20.40;12.40;;;;;;;6.68;78.82;99781.27;107605;1260;62681;-69
2023/01/16 19:22:42;;;;;;;18.80;12.30;;;;;;;6.67;78.64;99776.47;107642;1259;60703;-69
2023/01/16 19:25:09;;;;;;;18.70;12.00;;;;;;;6.67;78.41;99776.36;107606;1260;71222;-69
2023/01/16 19:27:37;;;;;;;18.20;12.00;;;;;;;6.67;78.19;99776.36;107627;1259;73680;-67
2023/01/16 19:30:05;;;;;;;20.40;11.90;;;;;;;6.67;77.95;99774.98;107607;1259;74584;-68
2023/01/16 19:32:32;;;;;;;19.60;12.40;;;;;;;6.67;77.76;99776.80;107651;1259;62270;-68
2023/01/16 19:34:59;;;;;;;18.40;11.50;;;;;;;6.69;77.60;99774.48;107645;1259;59563;-69
2023/01/16 19:37:31;;;;;;;19.30;11.90;;;;;;;6.71;77.38;99772.36;107593;1261;75848;-68
2023/01/16 19:40:00;;;;;;;17.20;10.90;;;;;;;6.72;77.22;99775.79;107631;1259;72215;-69
2023/01/16 19:47:59;;;;;;;17.70;11.50;;;;;;;6.80;76.63;99772.30;107632;1259;60454;-67
2023/01/16 19:50:27;;;;;;;17.40;11.00;;;;;;;6.82;76.44;99772.32;107634;1259;73205;-68
2023/01/16 19:52:54;;;;;;;17.20;11.30;;;;;;;6.85;76.25;99775.05;107660;1259;75192;-68
2023/01/16 19:55:21;;;;;;;18.40;11.80;;;;;;;6.86;76.12;99779.47;107563;1265;72752;-68
2023/01/16 19:57:48;;;;;;;17.70;10.60;;;;;;;6.88;75.86;99777.68;108023;1256;62921;-70
2023/01/16 20:00:16;;;;;;;19.70;11.80;;;;;;;6.88;75.68;99779.07;107944;1258;61862;-68
2023/01/16 22:36:15;;;;;;;15.50;9.90;;;;;;;5.67;88.16;99667.17;105678;1283;612982;-70
2023/01/16 22:38:43;;;;;;;15.70;9.80;;;;;;;6.53;83.99;99661.71;107199;1266;225617;-68
2023/01/16 22:41:10;;;;;;;13.80;10.30;;;;;;;6.57;83.02;99658.20;107378;1266;61275;-70
2023/01/16 22:46:23;;;;;;;15.40;10.70;;;;;;;6.63;81.61;99650.23;107402;1266;73031;-68
2023/01/16 22:48:52;;;;;;;15.00;10.30;;;;;;;6.67;81.06;99647.23;107410;1266;74719;-69
2023/01/16 22:51:19;;;;;;;14.40;9.80;;;;;;;6.67;80.41;99639.44;107409;1266;63108;-69
2023/01/16 22:53:46;;;;;;;14.10;10.40;;;;;;;6.66;79.93;99640.92;107394;1265;62833;-68
2023/01/16 22:56:13;;;;;;;14.60;10.00;;;;;;;6.69;79.58;99638.55;107381;1265;74438;-68
2023/01/16 22:58:41;;;;;;;16.90;10.50;;;;;;;6.73;79.27;99638.31;107420;1266;74843;-68
2023/01/16 23:01:15;;;;;;;15.40;9.80;;;;;;;6.75;78.70;99637.87;107396;1265;72702;-68
2023/01/16 23:03:43;;;;;;;13.40;9.00;;;;;;;6.76;78.35;99637.48;107717;1260;62411;-69
2023/01/16 23:06:11;;;;;;;12.70;9.40;;;;;;;6.77;78.00;99637.55;107715;1260;62477;-69
2023/01/16 23:08:38;;;;;;;15.40;9.40;;;;;;;6.78;77.51;99635.80;107902;1259;71340;-69
2023/01/16 23:11:33;;;;;;;15.10;9.40;;;;;;;6.81;77.36;99633.50;107723;1260;72549;-69
2023/01/16 23:14:04;;;;;;;13.60;9.30;;;;;;;6.85;77.08;99625.77;107682;1260;73989;-68
2023/01/16 23:16:33;;;;;;;14.50;9.20;;;;;;;6.86;76.72;99622.70;107833;1260;61452;-67
2023/01/16 23:19:01;;;;;;;14.20;9.70;;;;;;;6.88;76.42;99618.46;107791;1260;60438;-68
2023/01/16 23:21:28;;;;;;;15.10;9.80;;;;;;;6.89;76.21;99606.42;107698;1259;73774;-68
2023/01/16 23:23:58;;;;;;;15.20;9.70;;;;;;;6.90;75.90;99603.39;107701;1260;71584;-69
2023/01/16 23:26:25;;;;;;;14.20;9.40;;;;;;;6.91;75.61;99603.25;107674;1259;71006;-69
2023/01/16 23:28:54;;;;;;;13.40;8.70;;;;;;;6.92;75.44;99594.81;107644;1260;60823;-67
2023/01/16 23:31:21;;;;;;;13.80;9.10;;;;;;;6.93;75.18;99589.62;107669;1260;60896;-67
2023/01/16 23:33:49;;;;;;;12.10;8.30;;;;;;;6.95;75.11;99588.52;107624;1260;73162;-67
2023/01/16 23:36:23;;;;;;;15.00;9.10;;;;;;;6.98;74.82;99586.84;107727;1260;73906;-67
2023/01/16 23:38:50;;;;;;;12.40;8.20;;;;;;;7.00;74.67;99583.19;107613;1260;72451;-69
2023/01/16 23:44:27;;;;;;;14.70;8.80;;;;;;;7.00;74.44;99585.77;107643;1260;60611;-67
2023/01/16 23:44:54;;;;;;;12.30;8.60;;;;;;;7.02;74.33;99583.73;107640;1260;59506;-67
2023/01/16 23:47:07;;;;;;;13.10;8.50;;;;;;;7.06;74.16;99583.52;107642;1260;73599;-68
2023/01/16 23:49:39;;;;;;;13.80;8.80;;;;;;;7.07;73.94;99583.59;107624;1260;71895;-68
2023/01/16 23:52:11;;;;;;;14.00;8.50;;;;;;;7.09;73.79;99580.26;107631;1265;73731;-68
2023/01/16 23:54:38;;;;;;;13.90;8.40;;;;;;;7.09;73.60;99570.39;107749;1262;60967;-68
2023/01/16 23:57:10;;;;;;;12.70;8.00;;;;;;;7.09;73.47;99575.32;107786;1260;61097;-68
2023/01/16 23:59:37;;;;;;;;;;;;;;;7.11;73.46;99571.40;107789;1258;74067;-67
